Terminal Aerodrome Forecast
Issued by NWS

Home | Current Version | Previous Version | Graphics & Text | Print | Product List | Glossary On
Versions: 1 2 3 4 5 6 7 8 9 10
721
FTUS43 KTOP 211121
TAFFOE
TAF
KFOE 211121Z 2112/2212 06011KT P6SM BKN100
     FM212000 05012G19KT P6SM VCSH SCT040 BKN060
     FM220300 03011KT P6SM SHRA OVC035
     FM220600 02010KT 6SM SHRA OVC025=

USA.gov is the U.S. government's official web portal to all federal, state and local government web resources and services.